In Rescue
 
Open Full Screen Window  High Contrast Mode
October 04, 2023 12:09 AM EDT
Weather Information
Wind Direction
  ---
Wind Speed
  00 kt (0 mph)
Wind Gust
  00 kt (0 mph)
Altimeter
30.14 in
Visibility
10 SM
Temperature
20° C
68° F
Dewpoint
15° C
59° F
Humidity
73%
Sky Condition
Clear
VFR

METAR KVLL 040409Z AUTO 00000KT 10SM CLR 20/15 A3014 RMK AO2

FAA Disclaimer: The data displayed is for advisory purposes only and is not to be used for flight planning or operations.